createdAt,value
2023-10-13T00:02:02.627Z,101004.78
2023-10-13T00:04:32.707Z,101003.91
2023-10-13T00:07:02.572Z,100997.78
2023-10-13T00:09:39.398Z,100995.13
2023-10-13T00:12:16.277Z,100992.50
2023-10-13T00:14:47.146Z,100990.78
2023-10-13T00:17:21.632Z,100984.59
2023-10-13T00:19:56.118Z,100980.25
2023-10-13T00:22:23.892Z,100981.13
2023-10-13T00:24:52.867Z,100974.97
2023-10-13T00:27:31.562Z,100973.22
2023-10-13T00:30:18.103Z,100966.22
2023-10-13T00:32:58.057Z,100961.81
2023-10-13T00:35:38.095Z,100960.91
2023-10-13T00:38:13.978Z,100956.44
2023-10-13T00:41:05.196Z,100948.53
2023-10-13T00:43:35.944Z,100956.41
2023-10-13T00:46:06.834Z,100948.50
2023-10-13T00:48:43.774Z,100943.22
2023-10-13T00:51:23.624Z,100945.78
2023-10-13T00:53:54.176Z,100939.66
2023-10-13T00:56:28.121Z,100931.72
2023-10-13T00:59:00.478Z,100921.19
2023-10-13T01:01:34.105Z,100926.44
2023-10-13T01:04:04.930Z,100927.28
2023-10-13T01:06:32.637Z,100924.69
2023-10-13T01:09:20.551Z,100923.00
2023-10-13T01:11:54.261Z,100918.53
2023-10-13T01:14:22.765Z,100916.75
2023-10-13T01:16:54.362Z,100918.44
2023-10-13T01:19:25.868Z,100909.63
2023-10-13T01:22:04.135Z,100909.63
2023-10-13T01:24:38.550Z,100908.75
2023-10-13T01:27:19.291Z,100911.38
2023-10-13T01:29:49.766Z,100904.34
2023-10-13T01:32:23.282Z,100907.91
2023-10-13T01:34:56.642Z,100900.84
2023-10-13T01:37:24.507Z,100894.72
2023-10-13T01:39:53.120Z,100899.97
2023-10-13T01:42:23.050Z,100896.53
2023-10-13T01:44:51.800Z,100896.63
2023-10-13T01:47:18.867Z,100885.19
2023-10-13T01:49:49.182Z,100872.91
2023-10-13T01:52:17.316Z,100871.28
2023-10-13T01:54:50.764Z,100873.00
2023-10-13T01:57:19.041Z,100873.13
2023-10-13T01:59:50.580Z,100859.03
2023-10-13T02:02:30.623Z,100861.72
2023-10-13T02:04:58.684Z,100859.13
2023-10-13T02:07:31.014Z,100857.41
2023-10-13T02:09:59.083Z,100856.59
2023-10-13T02:12:43.740Z,100836.41
2023-10-13T02:15:13.531Z,100840.88
2023-10-13T02:17:43.682Z,100835.66
2023-10-13T02:20:17.196Z,100828.63
2023-10-13T02:22:51.205Z,100821.66
2023-10-13T02:25:58.975Z,100826.06
2023-10-13T02:28:29.686Z,100819.97
2023-10-13T02:30:58.683Z,100818.97
2023-10-13T02:33:32.161Z,100821.75
2023-10-13T02:36:06.259Z,100822.59
2023-10-13T02:38:36.183Z,100814.66
2023-10-13T02:41:07.272Z,100813.78
2023-10-13T02:43:37.675Z,100812.88
2023-10-13T02:46:05.696Z,100810.25
2023-10-13T02:48:42.474Z,100796.13
2023-10-13T02:51:16.721Z,100797.97
2023-10-13T02:53:51.274Z,100792.69
2023-10-13T02:56:24.578Z,100792.69
2023-10-13T02:59:06.890Z,100787.44
2023-10-13T03:01:35.534Z,100782.94
2023-10-13T03:04:04.927Z,100779.47
2023-10-13T03:06:34.934Z,100782.91
2023-10-13T03:09:17.811Z,100773.34
2023-10-13T03:11:51.986Z,100769.78
2023-10-13T03:14:29.719Z,100767.13
2023-10-13T03:17:20.222Z,100758.38
2023-10-13T03:19:51.563Z,100767.13
2023-10-13T03:22:19.674Z,100756.59
2023-10-13T03:24:49.669Z,100753.00
2023-10-13T03:27:40.073Z,100743.31
2023-10-13T03:30:17.288Z,100743.41
2023-10-13T03:32:47.185Z,100729.31
2023-10-13T03:35:14.309Z,100737.13
2023-10-13T03:37:42.132Z,100727.50
2023-10-13T03:40:23.564Z,100732.84
2023-10-13T03:43:11.670Z,100720.63
2023-10-13T03:45:44.203Z,100716.25
2023-10-13T03:48:29.928Z,100707.44
2023-10-13T03:51:11.724Z,100702.03
2023-10-13T03:53:55.095Z,100708.22
2023-10-13T03:56:31.045Z,100701.22
2023-10-13T03:59:06.365Z,100690.66
2023-10-13T04:01:45.334Z,100692.41
2023-10-13T04:04:13.669Z,100685.41
2023-10-13T04:06:47.996Z,100688.97
2023-10-13T04:09:31.602Z,100683.69
2023-10-13T04:12:05.351Z,100683.69
2023-10-13T04:14:57.904Z,100669.59
2023-10-13T04:17:28.223Z,100657.34
2023-10-13T04:20:08.553Z,100655.69
2023-10-13T04:22:47.263Z,100646.91
2023-10-13T04:25:44.692Z,100648.59
2023-10-13T04:28:14.364Z,100652.06
2023-10-13T04:30:58.074Z,100639.78
2023-10-13T04:33:33.183Z,100638.06
2023-10-13T04:36:28.135Z,100639.00
2023-10-13T04:39:05.812Z,100632.78
2023-10-13T04:41:59.090Z,100634.50
2023-10-13T04:44:45.153Z,100629.25
2023-10-13T04:47:19.300Z,100623.00
2023-10-13T04:49:46.797Z,100626.50
2023-10-13T04:52:16.266Z,100611.59
2023-10-13T04:54:55.330Z,100611.53
2023-10-13T04:57:26.519Z,100599.34
2023-10-13T05:00:12.292Z,100599.34
2023-10-13T05:02:56.885Z,100587.84
2023-10-13T05:05:27.417Z,100576.53
2023-10-13T05:08:16.087Z,100574.66
2023-10-13T05:11:03.330Z,100567.69
2023-10-13T05:13:48.887Z,100571.13
2023-10-13T05:16:34.288Z,100570.22
2023-10-13T05:19:20.931Z,100571.94
2023-10-13T05:22:06.695Z,100580.75
2023-10-13T05:24:52.034Z,100577.16
2023-10-13T05:27:37.751Z,100576.16
2023-10-13T05:30:23.558Z,100569.19
2023-10-13T05:33:10.002Z,100570.03
2023-10-13T05:35:55.486Z,100576.16
2023-10-13T05:38:41.126Z,100579.75
2023-10-13T05:41:27.388Z,100581.44
2023-10-13T05:44:13.323Z,100580.56
2023-10-13T05:46:40.641Z,100587.59
2023-10-13T05:49:13.042Z,100591.09
2023-10-13T05:51:41.468Z,100587.41
2023-10-13T05:54:11.540Z,100598.00
2023-10-13T05:56:57.238Z,100597.16
2023-10-13T05:59:42.838Z,100595.34
2023-10-13T06:02:28.786Z,100590.06
2023-10-13T06:05:15.952Z,100577.31
2023-10-13T06:08:01.371Z,100566.66
2023-10-13T06:10:47.911Z,100570.22
2023-10-13T06:13:33.245Z,100560.38
2023-10-13T06:16:19.554Z,100554.78
2023-10-13T06:19:05.499Z,100556.72
2023-10-13T06:21:51.433Z,100541.75
2023-10-13T06:24:36.590Z,100543.16
2023-10-13T06:27:22.092Z,100541.50
2023-10-13T06:29:51.449Z,100543.13
2023-10-13T06:32:18.217Z,100539.56
2023-10-13T06:34:48.939Z,100538.63
2023-10-13T06:37:27.366Z,100535.66
2023-10-13T06:39:57.505Z,100521.81
2023-10-13T06:42:28.422Z,100519.09
2023-10-13T06:44:56.407Z,100524.97
2023-10-13T06:47:25.637Z,100524.97
2023-10-13T06:49:53.109Z,100528.44
2023-10-13T06:52:20.222Z,100538.88
2023-10-13T06:54:49.653Z,100540.47
2023-10-13T06:57:21.529Z,100526.31
2023-10-13T06:59:49.548Z,100534.25
2023-10-13T07:02:28.388Z,100525.34
2023-10-13T07:05:08.868Z,100537.44
2023-10-13T07:07:40.130Z,100530.19
2023-10-13T07:10:13.099Z,100531.69
2023-10-13T07:12:44.550Z,100522.75
2023-10-13T07:15:20.912Z,100523.59
2023-10-13T07:17:49.092Z,100518.28
2023-10-13T07:20:16.683Z,100526.97
2023-10-13T07:22:56.575Z,100523.34
2023-10-13T07:25:27.624Z,100517.06
2023-10-13T07:27:55.599Z,100508.97
2023-10-13T07:30:27.665Z,100500.13
2023-10-13T07:33:00.932Z,100500.78
2023-10-13T07:35:32.615Z,100501.56
2023-10-13T07:38:02.416Z,100498.88
2023-10-13T07:40:30.113Z,100498.88
2023-10-13T07:43:11.861Z,100499.47
2023-10-13T07:45:41.963Z,100494.31
2023-10-13T07:48:22.137Z,100493.50
2023-10-13T07:51:17.558Z,100494.31
2023-10-13T07:53:50.882Z,100485.44
2023-10-13T07:56:20.412Z,100485.31
2023-10-13T07:59:07.591Z,100474.25
2023-10-13T08:01:35.632Z,100478.56
2023-10-13T08:04:06.451Z,100485.38
2023-10-13T08:06:35.516Z,100475.44
2023-10-13T08:09:09.786Z,100469.88
2023-10-13T08:11:38.675Z,100468.16
2023-10-13T08:14:26.613Z,100462.72
2023-10-13T08:17:01.842Z,100453.88
2023-10-13T08:19:33.541Z,100455.56
2023-10-13T08:22:21.986Z,100455.19
2023-10-13T08:24:50.950Z,100446.69
2023-10-13T08:27:58.034Z,100449.19
2023-10-13T08:30:28.106Z,100455.25
2023-10-13T08:32:56.000Z,100448.88
2023-10-13T08:35:24.828Z,100445.03
2023-10-13T08:37:55.879Z,100437.88
2023-10-13T08:40:46.535Z,100434.16
2023-10-13T08:43:14.577Z,100427.91
2023-10-13T08:45:43.511Z,100423.44
2023-10-13T08:48:17.575Z,100419.41
2023-10-13T08:50:52.414Z,100411.94
2023-10-13T08:53:33.170Z,100418.72
2023-10-13T08:56:16.251Z,100412.94
2023-10-13T08:58:55.092Z,100418.09
2023-10-13T09:01:46.204Z,100422.50
2023-10-13T09:04:20.145Z,100407.19
2023-10-13T09:07:09.030Z,100401.28
2023-10-13T09:09:47.760Z,100409.53
2023-10-13T09:12:18.370Z,100402.22
2023-10-13T09:14:58.105Z,100414.22
2023-10-13T09:17:37.044Z,100402.53
2023-10-13T09:20:24.949Z,100394.25
2023-10-13T09:23:03.136Z,100394.56
2023-10-13T09:25:37.088Z,100383.72
2023-10-13T09:28:16.154Z,100392.44
2023-10-13T09:30:47.877Z,100378.03
2023-10-13T09:33:21.968Z,100375.06
2023-10-13T09:35:52.993Z,100379.72
2023-10-13T09:38:22.034Z,100373.91
2023-10-13T09:40:52.394Z,100372.03
2023-10-13T09:43:22.249Z,100376.16
2023-10-13T09:46:03.867Z,100366.94
2023-10-13T09:48:35.570Z,100372.22
2023-10-13T09:51:09.881Z,100359.56
2023-10-13T09:53:50.595Z,100354.19
2023-10-13T09:56:30.506Z,100348.59
2023-10-13T09:59:09.641Z,100352.03
2023-10-13T10:01:59.987Z,100352.72
2023-10-13T10:04:27.308Z,100351.00
2023-10-13T10:06:58.741Z,100346.88
2023-10-13T10:09:37.822Z,100346.34
2023-10-13T10:12:20.071Z,100337.28
2023-10-13T10:15:12.860Z,100337.78
2023-10-13T10:17:44.277Z,100341.34
2023-10-13T10:20:21.385Z,100339.94
2023-10-13T10:23:00.453Z,100332.16
2023-10-13T10:25:36.458Z,100331.38
2023-10-13T10:28:08.886Z,100324.75
2023-10-13T10:30:40.154Z,100329.69
2023-10-13T10:33:14.170Z,100328.75
2023-10-13T10:35:44.007Z,100319.09
2023-10-13T10:38:25.096Z,100323.34
2023-10-13T10:40:58.392Z,100327.28
2023-10-13T10:43:33.140Z,100327.09
2023-10-13T10:46:01.229Z,100323.69
2023-10-13T10:48:36.205Z,100332.25
2023-10-13T10:51:15.749Z,100325.22
2023-10-13T10:54:06.455Z,100317.88
2023-10-13T10:56:36.472Z,100307.44
2023-10-13T10:59:06.015Z,100306.47
2023-10-13T11:01:48.776Z,100296.25
2023-10-13T11:04:20.850Z,100292.22
2023-10-13T11:06:55.889Z,100292.06
2023-10-13T11:09:38.297Z,100286.56
2023-10-13T11:12:15.636Z,100278.00
2023-10-13T11:14:49.116Z,100266.59
2023-10-13T11:17:46.910Z,100275.63
2023-10-13T11:20:18.992Z,100267.72
2023-10-13T11:22:53.876Z,100265.59
2023-10-13T11:25:36.932Z,100261.88
2023-10-13T11:28:28.308Z,100255.91
2023-10-13T11:31:16.994Z,100252.56
2023-10-13T11:33:48.397Z,100238.06
2023-10-13T11:36:20.532Z,100240.22
2023-10-13T11:38:50.739Z,100234.91
2023-10-13T11:41:21.127Z,100228.91
2023-10-13T11:43:51.661Z,100222.41
2023-10-13T11:46:39.159Z,100209.16
2023-10-13T11:49:14.783Z,100203.09
2023-10-13T11:51:50.391Z,100222.47
2023-10-13T11:54:20.332Z,100224.22
2023-10-13T11:56:51.641Z,100212.94
2023-10-13T11:59:18.898Z,100221.88
2023-10-13T12:02:06.094Z,100226.78
2023-10-13T12:04:35.926Z,100210.81
2023-10-13T12:07:15.296Z,100221.25
2023-10-13T12:09:57.480Z,100220.22
2023-10-13T12:12:26.049Z,100209.97
2023-10-13T12:14:55.903Z,100210.19
2023-10-13T12:17:36.332Z,100214.53
2023-10-13T12:20:06.834Z,100194.38
2023-10-13T12:22:40.664Z,100183.59
2023-10-13T12:25:27.014Z,100190.09
2023-10-13T12:27:58.972Z,100186.81
2023-10-13T12:30:45.004Z,100195.97
2023-10-13T12:33:12.830Z,100179.53
2023-10-13T12:36:15.084Z,100173.16
2023-10-13T12:38:48.438Z,100196.38
2023-10-13T12:41:36.306Z,100173.38
2023-10-13T12:44:23.899Z,100172.09
2023-10-13T12:47:10.968Z,100180.38
2023-10-13T12:49:47.166Z,100165.25
2023-10-13T12:52:20.838Z,100189.22
2023-10-13T12:54:48.719Z,100182.94
2023-10-13T12:57:16.994Z,100187.88
2023-10-13T12:59:44.442Z,100200.19
2023-10-13T13:02:17.039Z,100187.88
2023-10-13T13:04:49.254Z,100189.78
2023-10-13T13:07:16.148Z,100192.78
2023-10-13T13:09:43.166Z,100185.84
2023-10-13T13:12:17.265Z,100193.59
2023-10-13T13:14:47.702Z,100193.59
2023-10-13T13:17:15.510Z,100185.81
2023-10-13T13:19:42.854Z,100184.00
2023-10-13T13:22:13.446Z,100176.22
2023-10-13T13:24:47.908Z,100177.81
2023-10-13T13:27:23.633Z,100173.34
2023-10-13T13:29:50.797Z,100176.22
2023-10-13T13:32:26.037Z,100186.56
2023-10-13T13:35:16.555Z,100179.09
2023-10-13T13:37:45.941Z,100172.72
2023-10-13T13:40:16.709Z,100172.09
2023-10-13T13:42:44.812Z,100172.19
2023-10-13T13:45:33.393Z,100173.25
2023-10-13T13:48:00.901Z,100167.75
2023-10-13T13:50:30.496Z,100164.78
2023-10-13T13:52:58.831Z,100158.56
2023-10-13T13:55:29.962Z,100163.34
2023-10-13T13:57:58.017Z,100166.56
2023-10-13T14:00:39.041Z,100152.94
2023-10-13T14:03:07.291Z,100165.09
2023-10-13T14:05:36.766Z,100149.53
2023-10-13T14:08:06.099Z,100166.16
2023-10-13T14:10:33.750Z,100158.34
2023-10-13T14:13:15.010Z,100152.25
2023-10-13T14:15:45.237Z,100154.50
2023-10-13T14:18:19.132Z,100146.09
2023-10-13T14:20:46.314Z,100154.41
2023-10-13T14:23:13.280Z,100139.94
2023-10-13T14:25:47.347Z,100134.19
2023-10-13T14:28:19.304Z,100132.47
2023-10-13T14:30:46.588Z,100138.75
2023-10-13T14:33:14.155Z,100149.94
2023-10-13T14:35:41.209Z,100144.63
2023-10-13T14:38:08.566Z,100144.84
2023-10-13T14:40:36.088Z,100134.41
2023-10-13T14:43:06.585Z,100140.34
2023-10-13T14:45:35.155Z,100139.16
2023-10-13T14:48:06.704Z,100141.19
2023-10-13T14:50:34.910Z,100135.00
2023-10-13T14:53:02.434Z,100130.66
2023-10-13T14:55:39.824Z,100124.75
2023-10-13T14:58:08.975Z,100134.03
2023-10-13T15:00:36.625Z,100116.00
2023-10-13T15:03:06.800Z,100130.16
2023-10-13T15:05:36.909Z,100136.81
2023-10-13T15:08:04.930Z,100130.00
2023-10-13T15:10:32.613Z,100121.69
2023-10-13T15:13:00.616Z,100131.66
2023-10-13T15:15:33.368Z,100123.56
2023-10-13T15:18:02.199Z,100114.66
2023-10-13T15:20:29.802Z,100132.94
2023-10-13T15:23:01.165Z,100136.34
2023-10-13T15:25:40.079Z,100129.50
2023-10-13T15:28:11.068Z,100128.00
2023-10-13T15:30:45.878Z,100129.25
2023-10-13T15:33:14.221Z,100128.00
2023-10-13T15:35:46.846Z,100136.94
2023-10-13T15:38:13.957Z,100135.22
2023-10-13T15:40:43.812Z,100117.53
2023-10-13T15:43:12.396Z,100119.19
2023-10-13T15:45:44.356Z,100130.38
2023-10-13T15:50:43.295Z,100117.38
2023-10-13T15:53:14.469Z,100117.47
2023-10-13T15:55:42.100Z,100113.66
2023-10-13T15:58:09.640Z,100105.69
2023-10-13T16:00:37.941Z,100102.28
2023-10-13T16:03:12.427Z,100091.88
2023-10-13T16:05:43.728Z,100100.56
2023-10-13T16:08:12.800Z,100101.22
2023-10-13T16:10:41.782Z,100097.19
2023-10-13T16:13:18.513Z,100098.97
2023-10-13T16:15:48.513Z,100096.22
2023-10-13T16:18:22.746Z,100096.22
2023-10-13T16:20:51.778Z,100093.19
2023-10-13T16:23:20.220Z,100091.66
2023-10-13T16:25:47.884Z,100083.16
2023-10-13T16:28:14.804Z,100085.63
2023-10-13T16:30:42.066Z,100092.81
2023-10-13T16:33:09.393Z,100086.00
2023-10-13T16:35:36.245Z,100078.59
2023-10-13T16:38:08.167Z,100069.63
2023-10-13T16:40:35.472Z,100083.56
2023-10-13T16:43:02.875Z,100077.16
2023-10-13T16:45:34.729Z,100085.59
2023-10-13T16:48:02.288Z,100074.31
2023-10-13T16:50:30.416Z,100081.53
2023-10-13T16:52:58.104Z,100080.94
2023-10-13T16:55:25.800Z,100077.53
2023-10-13T16:57:53.088Z,100075.94
2023-10-13T17:00:27.009Z,100082.41
2023-10-13T17:02:56.285Z,100068.41
2023-10-13T17:05:29.619Z,100057.31
2023-10-13T17:08:01.311Z,100069.91
2023-10-13T17:10:30.880Z,100058.56
2023-10-13T17:12:58.728Z,100058.56
2023-10-13T17:15:25.840Z,100059.88
2023-10-13T17:17:55.750Z,100057.13
2023-10-13T17:20:23.418Z,100051.50
2023-10-13T17:22:52.826Z,100036.72
2023-10-13T17:25:20.015Z,100032.78
2023-10-13T17:27:46.969Z,100054.50
2023-10-13T17:30:14.873Z,100044.25
2023-10-13T17:32:45.804Z,100039.31
2023-10-13T17:35:14.446Z,100047.78
2023-10-13T17:37:44.381Z,100055.22
2023-10-13T17:40:17.990Z,100038.47
2023-10-13T17:42:50.590Z,100045.84
2023-10-13T17:45:17.651Z,100038.84
2023-10-13T17:47:45.188Z,100042.41
2023-10-13T17:50:14.485Z,100042.59
2023-10-13T17:52:48.418Z,100046.22
2023-10-13T17:55:17.742Z,100043.13
2023-10-13T17:57:47.381Z,100045.38
2023-10-13T18:00:16.249Z,100030.53
2023-10-13T18:02:43.472Z,100026.25
2023-10-13T18:05:15.940Z,100012.25
2023-10-13T18:07:43.894Z,100020.94
2023-10-13T18:10:14.074Z,100008.50
2023-10-13T18:12:43.058Z,100011.38
2023-10-13T18:15:15.292Z,100001.59
2023-10-13T18:17:42.576Z,100002.00
2023-10-13T18:20:16.456Z,99987.84
2023-10-13T18:22:44.662Z,99999.44
2023-10-13T18:25:14.542Z,99991.44
2023-10-13T18:27:45.436Z,99990.13
2023-10-13T18:30:13.652Z,99983.13
2023-10-13T18:32:47.382Z,99976.91
2023-10-13T18:35:16.539Z,99964.22
2023-10-13T18:37:43.892Z,99962.69
2023-10-13T18:40:14.742Z,99960.66
2023-10-13T18:42:43.276Z,99966.63
2023-10-13T18:45:12.623Z,99966.94
2023-10-13T18:47:41.019Z,99949.66
2023-10-13T18:50:08.192Z,99950.88
2023-10-13T18:52:35.083Z,99945.75
2023-10-13T18:55:01.953Z,99950.38
2023-10-13T18:57:29.348Z,99931.53
2023-10-13T18:59:56.580Z,99936.09
2023-10-13T19:02:24.237Z,99923.22
2023-10-13T19:04:51.255Z,99922.31
2023-10-13T19:07:18.581Z,99917.56
2023-10-13T19:09:45.473Z,99917.94
2023-10-13T19:12:12.461Z,99905.81
2023-10-13T19:14:40.098Z,99888.06
2023-10-13T19:17:08.339Z,99870.81
2023-10-13T19:19:35.873Z,99890.47
2023-10-13T19:22:07.488Z,99895.75
2023-10-13T19:24:35.164Z,99887.25
2023-10-13T19:27:06.826Z,99875.69
2023-10-13T19:29:34.015Z,99872.31
2023-10-13T19:32:03.441Z,99867.94
2023-10-13T19:34:30.684Z,99868.81
2023-10-13T19:37:04.505Z,99877.03
2023-10-13T19:39:37.985Z,99883.47
2023-10-13T19:42:08.248Z,99882.66
2023-10-13T19:44:35.979Z,99919.56
2023-10-13T19:47:03.184Z,99906.50
2023-10-13T19:49:30.579Z,99906.47
2023-10-13T19:51:59.342Z,99919.59
2023-10-13T19:54:27.856Z,99918.72
2023-10-13T19:56:57.613Z,99915.66
2023-10-13T19:59:24.703Z,99918.47
2023-10-13T20:01:51.904Z,99902.00
2023-10-13T20:04:20.132Z,99887.84
2023-10-13T20:06:47.496Z,99943.69
2023-10-13T20:09:24.691Z,99972.22
2023-10-13T20:11:52.635Z,99942.69
2023-10-13T20:14:22.825Z,99940.63
2023-10-13T20:16:50.748Z,99925.38
2023-10-13T20:19:20.511Z,99925.63
2023-10-13T20:21:48.503Z,99917.19
2023-10-13T20:24:17.235Z,99914.94
2023-10-13T20:26:46.776Z,99915.94
2023-10-13T20:29:18.688Z,99907.44
2023-10-13T20:31:48.949Z,99887.31
2023-10-13T20:34:21.159Z,99860.22
2023-10-13T20:36:48.397Z,99854.41
2023-10-13T20:39:25.472Z,99867.69
2023-10-13T20:41:53.108Z,99853.72
2023-10-13T20:44:29.031Z,99866.13
2023-10-13T20:46:58.315Z,99846.88
2023-10-13T20:49:28.552Z,99845.16
2023-10-13T20:51:55.567Z,99854.03
2023-10-13T20:54:22.778Z,99851.47
2023-10-13T20:56:49.789Z,99836.56
2023-10-13T20:59:16.870Z,99842.69
2023-10-13T21:01:44.296Z,99840.91
2023-10-13T21:04:13.159Z,99838.22
2023-10-13T21:06:41.901Z,99827.66
2023-10-13T21:09:13.904Z,99821.50
2023-10-13T21:11:42.080Z,99822.38
2023-10-13T21:14:09.295Z,99815.38
2023-10-13T21:16:36.704Z,99810.16
2023-10-13T21:19:06.372Z,99818.09
2023-10-13T21:21:35.017Z,99797.13
2023-10-13T21:24:11.567Z,99806.06
2023-10-13T21:26:38.846Z,99805.31
2023-10-13T21:29:11.929Z,99794.91
2023-10-13T21:31:39.523Z,99808.16
2023-10-13T21:34:07.347Z,99797.88
2023-10-13T21:36:38.766Z,99806.72
2023-10-13T21:39:06.368Z,99805.78
2023-10-13T21:41:38.831Z,99798.63
2023-10-13T21:44:07.545Z,99787.16
2023-10-13T21:46:38.886Z,99780.00
2023-10-13T21:49:07.330Z,99778.94
2023-10-13T21:51:38.012Z,99784.19
2023-10-13T21:54:08.939Z,99780.63
2023-10-13T21:56:40.127Z,99766.50
2023-10-13T21:59:11.880Z,99774.34
2023-10-13T22:01:44.856Z,99757.31
2023-10-13T22:04:21.762Z,99753.75
2023-10-13T22:06:49.717Z,99750.16
2023-10-13T22:09:16.927Z,99741.50
2023-10-13T22:11:44.108Z,99742.19
2023-10-13T22:14:17.628Z,99747.19
2023-10-13T22:16:45.115Z,99726.88
2023-10-13T22:19:13.408Z,99726.03
2023-10-13T22:21:41.853Z,99732.22
2023-10-13T22:24:11.999Z,99733.69
2023-10-13T22:26:39.077Z,99714.28
2023-10-13T22:29:10.498Z,99719.56
2023-10-13T22:31:40.354Z,99717.69
2023-10-13T22:34:07.777Z,99719.72
2023-10-13T22:36:35.596Z,99714.28
2023-10-13T22:39:02.348Z,99716.69
2023-10-13T22:41:34.762Z,99714.97
2023-10-13T22:44:06.852Z,99714.47
2023-10-13T22:46:34.349Z,99709.19
2023-10-13T22:49:01.785Z,99708.25
2023-10-13T22:51:28.978Z,99709.19
2023-10-13T22:53:56.227Z,99707.31
2023-10-13T22:56:23.962Z,99712.09
2023-10-13T22:58:51.270Z,99706.47
2023-10-13T23:01:19.144Z,99701.94
2023-10-13T23:03:57.095Z,99679.69
2023-10-13T23:06:31.769Z,99693.66
2023-10-13T23:09:12.812Z,99690.44
2023-10-13T23:11:40.699Z,99682.13
2023-10-13T23:14:13.433Z,99703.47
2023-10-13T23:16:41.445Z,99688.38
2023-10-13T23:19:09.205Z,99704.69
2023-10-13T23:21:39.656Z,99717.00
2023-10-13T23:24:11.199Z,99707.78
2023-10-13T23:26:39.990Z,99701.78
2023-10-13T23:29:11.392Z,99713.72
2023-10-13T23:31:39.550Z,99708.06
2023-10-13T23:34:07.752Z,99709.59
2023-10-13T23:36:35.496Z,99718.28
2023-10-13T23:39:12.254Z,99717.91
2023-10-13T23:41:42.719Z,99701.84
2023-10-13T23:44:18.653Z,99703.94
2023-10-13T23:46:48.698Z,99716.41
2023-10-13T23:49:19.457Z,99723.66
2023-10-13T23:51:54.908Z,99723.75
2023-10-13T23:54:23.367Z,99725.47
2023-10-13T23:56:50.534Z,99720.34
2023-10-13T23:59:28.813Z,99724.97
